createdAt,value
2023-03-02T00:00:11.031Z,47.21
2023-03-02T00:01:11.056Z,47.21
2023-03-02T00:02:11.187Z,47.21
2023-03-02T00:03:10.938Z,47.21
2023-03-02T00:04:10.844Z,47.21
2023-03-02T00:05:10.978Z,47.21
2023-03-02T00:06:10.816Z,47.05
2023-03-02T00:07:11.006Z,46.89
2023-03-02T00:08:10.827Z,47.21
2023-03-02T00:09:10.977Z,47.37
2023-03-02T00:10:10.866Z,47.53
2023-03-02T00:11:10.967Z,47.21
2023-03-02T00:12:10.806Z,46.89
2023-03-02T00:13:10.976Z,47.05
2023-03-02T00:14:10.779Z,47.21
2023-03-02T00:15:10.869Z,47.21
2023-03-02T00:16:10.854Z,47.37
2023-03-02T00:17:10.830Z,47.37
2023-03-02T00:18:11.038Z,47.21
2023-03-02T00:19:10.741Z,47.21
2023-03-02T00:20:10.759Z,47.21
2023-03-02T00:21:10.696Z,46.89
2023-03-02T00:22:11.267Z,47.21
2023-03-02T00:23:10.627Z,47.21
2023-03-02T00:24:10.849Z,47.21
2023-03-02T00:25:10.679Z,47.05
2023-03-02T00:26:10.996Z,47.37
2023-03-02T00:27:10.737Z,47.21
2023-03-02T00:28:10.775Z,47.21
2023-03-02T00:29:10.621Z,47.37
2023-03-02T00:30:10.778Z,47.05
2023-03-02T00:31:10.813Z,47.05
2023-03-02T00:32:10.860Z,47.21
2023-03-02T00:33:10.727Z,47.37
2023-03-02T00:34:10.719Z,47.21
2023-03-02T00:35:10.661Z,47.37
2023-03-02T00:36:10.526Z,47.70
2023-03-02T00:37:10.575Z,47.37
2023-03-02T00:38:10.515Z,47.21
2023-03-02T00:39:10.677Z,47.70
2023-03-02T00:40:10.662Z,47.21
2023-03-02T00:41:10.655Z,47.21
2023-03-02T00:42:10.508Z,47.21
2023-03-02T00:43:10.684Z,47.37
2023-03-02T00:44:10.445Z,47.21
2023-03-02T00:45:10.555Z,47.05
2023-03-02T00:46:10.622Z,47.05
2023-03-02T00:47:10.584Z,47.21
2023-03-02T00:48:10.564Z,48.02
2023-03-02T00:49:10.548Z,47.21
2023-03-02T00:50:10.520Z,47.21
2023-03-02T00:51:10.291Z,47.05
2023-03-02T00:52:10.504Z,47.05
2023-03-02T00:53:10.334Z,46.89
2023-03-02T00:54:10.608Z,47.21
2023-03-02T00:55:10.352Z,47.21
2023-03-02T00:56:10.488Z,47.05
2023-03-02T00:57:10.374Z,47.21
2023-03-02T00:58:10.542Z,47.05
2023-03-02T00:59:10.294Z,47.21
2023-03-02T01:00:10.477Z,47.37
2023-03-02T01:01:10.413Z,47.05
2023-03-02T01:02:10.515Z,47.53
2023-03-02T01:03:10.419Z,45.76
2023-03-02T01:04:10.414Z,47.05
2023-03-02T01:05:10.367Z,47.37
2023-03-02T01:06:10.226Z,47.37
2023-03-02T01:07:10.338Z,48.18
2023-03-02T01:08:10.237Z,47.21
2023-03-02T01:09:10.390Z,48.82
2023-03-02T01:10:10.201Z,49.15
2023-03-02T01:11:10.350Z,48.82
2023-03-02T01:12:10.188Z,49.15
2023-03-02T01:13:10.298Z,48.98
2023-03-02T01:14:10.229Z,49.15
2023-03-02T01:15:10.330Z,48.82
2023-03-02T01:16:10.301Z,48.98
2023-03-02T01:17:10.329Z,48.50
2023-03-02T01:18:11.607Z,48.66
2023-03-02T01:19:10.272Z,48.50
2023-03-02T01:20:10.191Z,48.98
2023-03-02T01:21:10.070Z,48.66
2023-03-02T01:22:10.208Z,48.50
2023-03-02T01:23:10.010Z,48.50
2023-03-02T01:24:10.193Z,48.66
2023-03-02T01:25:09.993Z,48.98
2023-03-02T01:26:10.163Z,48.50
2023-03-02T01:27:10.043Z,48.50
2023-03-02T01:28:10.170Z,48.34
2023-03-02T01:29:10.012Z,48.50
2023-03-02T01:30:10.202Z,48.50
2023-03-02T01:31:10.032Z,48.66
2023-03-02T01:32:10.127Z,48.82
2023-03-02T01:33:10.071Z,46.73
2023-03-02T01:34:10.092Z,48.34
2023-03-02T01:35:10.064Z,48.34
2023-03-02T01:36:09.906Z,48.34
2023-03-02T01:37:10.014Z,48.50
2023-03-02T01:38:09.966Z,48.50
2023-03-02T01:39:10.043Z,50.27
2023-03-02T01:40:09.812Z,49.15
2023-03-02T01:41:10.010Z,48.50
2023-03-02T01:42:09.912Z,48.82
2023-03-02T01:43:10.013Z,48.34
2023-03-02T01:44:09.874Z,48.50
2023-03-02T01:45:09.992Z,48.50
2023-03-02T01:46:10.074Z,48.50
2023-03-02T01:47:09.993Z,48.02
2023-03-02T01:48:09.851Z,48.66
2023-03-02T01:49:09.981Z,48.50
2023-03-02T01:50:09.800Z,48.34
2023-03-02T01:51:09.731Z,48.66
2023-03-02T01:52:09.860Z,48.34
2023-03-02T01:53:09.765Z,48.34
2023-03-02T01:54:09.836Z,48.34
2023-03-02T01:55:09.762Z,48.34
2023-03-02T01:56:10.740Z,48.34
2023-03-02T01:57:09.058Z,48.50
2023-03-02T01:58:09.828Z,48.50
2023-03-02T01:59:09.672Z,48.66
2023-03-02T02:00:09.878Z,48.50
2023-03-02T02:01:09.749Z,48.82
2023-03-02T02:02:09.833Z,48.82
2023-03-02T02:03:09.681Z,48.82
2023-03-02T02:04:09.843Z,48.66
2023-03-02T02:05:09.680Z,48.50
2023-03-02T02:06:09.710Z,48.34
2023-03-02T02:07:09.714Z,48.34
2023-03-02T02:08:09.645Z,48.50
2023-03-02T02:09:09.694Z,48.34
2023-03-02T02:10:09.571Z,48.34
2023-03-02T02:11:09.776Z,48.66
2023-03-02T02:12:09.467Z,48.50
2023-03-02T02:13:09.790Z,48.82
2023-03-02T02:14:09.548Z,49.31
2023-03-02T02:15:09.715Z,48.82
2023-03-02T02:16:09.534Z,48.50
2023-03-02T02:17:09.660Z,48.66
2023-03-02T02:18:09.620Z,48.50
2023-03-02T02:19:09.677Z,48.34
2023-03-02T02:20:09.706Z,48.50
2023-03-02T02:21:09.623Z,48.50
2023-03-02T02:22:09.497Z,48.34
2023-03-02T02:23:09.328Z,48.66
2023-03-02T02:24:09.540Z,48.50
2023-03-02T02:25:09.369Z,48.50
2023-03-02T02:26:09.616Z,48.66
2023-03-02T02:27:09.467Z,48.50
2023-03-02T02:28:09.505Z,48.66
2023-03-02T02:29:09.410Z,48.50
2023-03-02T02:30:09.476Z,48.82
2023-03-02T02:31:09.366Z,48.66
2023-03-02T02:32:09.599Z,48.34
2023-03-02T02:33:09.406Z,48.98
2023-03-02T02:34:09.467Z,48.34
2023-03-02T02:35:09.396Z,48.98
2023-03-02T02:36:09.439Z,49.15
2023-03-02T02:37:09.410Z,49.15
2023-03-02T02:38:09.287Z,48.98
2023-03-02T02:39:09.356Z,48.66
2023-03-02T02:40:09.261Z,48.50
2023-03-02T02:41:09.345Z,48.50
2023-03-02T02:42:09.206Z,48.50
2023-03-02T02:43:09.377Z,48.50
2023-03-02T02:44:09.302Z,48.82
2023-03-02T02:45:09.377Z,48.50
2023-03-02T02:46:09.256Z,48.82
2023-03-02T02:47:09.368Z,48.82
2023-03-02T02:48:09.187Z,51.56
2023-03-02T02:49:09.335Z,48.66
2023-03-02T02:50:09.196Z,49.15
2023-03-02T02:51:09.300Z,48.66
2023-03-02T02:52:09.215Z,48.66
2023-03-02T02:53:09.055Z,48.50
2023-03-02T02:54:09.309Z,48.50
2023-03-02T02:55:09.177Z,48.82
2023-03-02T02:56:09.199Z,48.66
2023-03-02T02:57:09.017Z,48.50
2023-03-02T02:58:09.212Z,48.50
2023-03-02T02:59:09.091Z,48.98
2023-03-02T03:00:09.236Z,49.31
2023-03-02T03:01:09.093Z,49.95
2023-03-02T03:02:09.125Z,48.82
2023-03-02T03:03:09.026Z,48.82
2023-03-02T03:04:09.168Z,48.82
2023-03-02T03:05:09.106Z,48.50
2023-03-02T03:06:09.197Z,48.50
2023-03-02T03:07:09.136Z,50.60
2023-03-02T03:08:08.911Z,49.47
2023-03-02T03:09:09.041Z,48.82
2023-03-02T03:10:08.890Z,48.66
2023-03-02T03:11:09.276Z,48.82
2023-03-02T03:12:08.915Z,48.18
2023-03-02T03:13:09.046Z,48.66
2023-03-02T03:14:08.916Z,48.82
2023-03-02T03:15:09.075Z,48.50
2023-03-02T03:16:08.967Z,48.50
2023-03-02T03:17:09.102Z,48.82
2023-03-02T03:18:08.927Z,48.66
2023-03-02T03:19:09.045Z,48.50
2023-03-02T03:20:08.852Z,48.50
2023-03-02T03:21:08.955Z,48.66
2023-03-02T03:22:08.963Z,48.66
2023-03-02T03:23:08.903Z,48.82
2023-03-02T03:24:08.885Z,48.98
2023-03-02T03:25:08.727Z,48.82
2023-03-02T03:26:08.902Z,48.82
2023-03-02T03:27:08.923Z,49.47
2023-03-02T03:28:08.911Z,49.95
2023-03-02T03:29:08.811Z,48.82
2023-03-02T03:30:08.903Z,49.15
2023-03-02T03:31:08.874Z,48.66
2023-03-02T03:32:08.913Z,50.11
2023-03-02T03:33:08.741Z,49.31
2023-03-02T03:34:08.898Z,74.44
2023-03-02T03:35:08.823Z,49.95
2023-03-02T03:36:08.798Z,49.47
2023-03-02T03:37:08.708Z,49.95
2023-03-02T03:38:08.769Z,49.31
2023-03-02T03:39:08.757Z,49.47
2023-03-02T03:40:08.832Z,49.31
2023-03-02T03:41:08.702Z,49.47
2023-03-02T03:42:08.807Z,49.31
2023-03-02T03:43:08.718Z,49.79
2023-03-02T03:44:08.592Z,49.79
2023-03-02T03:45:08.704Z,49.15
2023-03-02T03:46:08.629Z,49.79
2023-03-02T03:47:08.762Z,49.95
2023-03-02T03:48:08.576Z,49.15
2023-03-02T03:49:08.667Z,49.31
2023-03-02T03:50:08.737Z,49.63
2023-03-02T03:51:08.830Z,49.63
2023-03-02T03:52:08.680Z,49.95
2023-03-02T03:53:08.683Z,49.47
2023-03-02T03:54:08.587Z,49.95
2023-03-02T03:55:08.398Z,54.30
2023-03-02T03:56:08.677Z,49.47
2023-03-02T03:57:08.455Z,49.95
2023-03-02T03:58:08.878Z,50.11
2023-03-02T03:59:08.577Z,50.43
2023-03-02T04:00:08.624Z,50.11
2023-03-02T04:01:08.423Z,49.95
2023-03-02T04:02:08.628Z,49.79
2023-03-02T04:03:08.429Z,49.79
2023-03-02T04:04:08.635Z,49.31
2023-03-02T04:05:08.513Z,50.27
2023-03-02T04:06:08.473Z,51.24
2023-03-02T04:07:08.565Z,49.79
2023-03-02T04:08:08.593Z,51.08
2023-03-02T04:09:08.446Z,49.79
2023-03-02T04:10:08.355Z,49.79
2023-03-02T04:11:08.437Z,49.79
2023-03-02T04:12:08.333Z,52.21
2023-03-02T04:13:08.617Z,50.11
2023-03-02T04:14:08.213Z,50.11
2023-03-02T04:15:08.464Z,49.95
2023-03-02T04:16:08.246Z,49.95
2023-03-02T04:17:08.386Z,50.43
2023-03-02T04:18:08.283Z,49.95
2023-03-02T04:19:08.432Z,50.60
2023-03-02T04:20:08.358Z,50.27
2023-03-02T04:21:08.342Z,49.79
2023-03-02T04:22:08.234Z,49.95
2023-03-02T04:23:08.503Z,52.37
2023-03-02T04:24:08.304Z,51.72
2023-03-02T04:25:08.172Z,52.05
2023-03-02T04:26:08.244Z,50.43
2023-03-02T04:27:08.084Z,50.11
2023-03-02T04:28:08.237Z,50.27
2023-03-02T04:29:08.208Z,50.43
2023-03-02T04:30:08.299Z,57.20
2023-03-02T04:31:08.129Z,50.43
2023-03-02T04:32:08.321Z,50.11
2023-03-02T04:33:08.052Z,50.43
2023-03-02T04:34:08.262Z,50.43
2023-03-02T04:35:08.137Z,50.43
2023-03-02T04:36:08.373Z,50.11
2023-03-02T04:37:08.098Z,50.27
2023-03-02T04:38:08.201Z,50.11
2023-03-02T04:39:08.104Z,54.79
2023-03-02T04:40:08.113Z,50.11
2023-03-02T04:41:08.044Z,50.60
2023-03-02T04:42:07.974Z,52.05
2023-03-02T04:43:08.228Z,50.43
2023-03-02T04:44:07.986Z,52.69
2023-03-02T04:45:08.095Z,50.60
2023-03-02T04:46:08.115Z,52.37
2023-03-02T04:47:08.047Z,51.08
2023-03-02T04:48:08.037Z,51.56
2023-03-02T04:49:08.167Z,51.88
2023-03-02T04:50:07.946Z,50.43
2023-03-02T04:51:08.019Z,53.33
2023-03-02T04:52:07.962Z,50.92
2023-03-02T04:53:08.038Z,50.43
2023-03-02T04:54:07.949Z,51.56
2023-03-02T04:55:08.070Z,51.08
2023-03-02T04:56:07.240Z,50.76
2023-03-02T04:57:07.779Z,50.60
2023-03-02T04:58:07.967Z,50.76
2023-03-02T04:59:07.818Z,53.01
2023-03-02T05:00:07.931Z,50.92
2023-03-02T05:01:07.859Z,51.56
2023-03-02T05:02:08.001Z,50.92
2023-03-02T05:03:07.864Z,50.92
2023-03-02T05:04:08.086Z,51.88
2023-03-02T05:05:07.851Z,50.76
2023-03-02T05:06:07.992Z,50.92
2023-03-02T05:07:07.742Z,53.33
2023-03-02T05:08:07.910Z,53.33
2023-03-02T05:09:07.778Z,50.43
2023-03-02T05:10:07.860Z,51.40
2023-03-02T05:11:07.797Z,52.85
2023-03-02T05:12:07.656Z,50.43
2023-03-02T05:13:07.765Z,50.92
2023-03-02T05:14:07.637Z,49.47
2023-03-02T05:15:07.793Z,50.76
2023-03-02T05:16:07.736Z,52.85
2023-03-02T05:17:07.917Z,51.72
2023-03-02T05:18:07.940Z,50.92
2023-03-02T05:19:07.736Z,51.56
2023-03-02T05:20:07.566Z,50.60
2023-03-02T05:21:07.786Z,51.24
2023-03-02T05:22:07.625Z,50.43
2023-03-02T05:23:07.874Z,53.17
2023-03-02T05:24:07.657Z,50.92
2023-03-02T05:25:07.678Z,50.43
2023-03-02T05:26:07.628Z,51.40
2023-03-02T05:27:07.549Z,52.69
2023-03-02T05:28:07.708Z,52.53
2023-03-02T05:29:07.500Z,51.40
2023-03-02T05:30:07.649Z,50.92
2023-03-02T05:31:07.541Z,50.92
2023-03-02T05:32:07.663Z,52.05
2023-03-02T05:33:07.548Z,51.88
2023-03-02T05:34:07.587Z,56.24
2023-03-02T05:35:07.609Z,52.05
2023-03-02T05:36:07.611Z,53.01
2023-03-02T05:37:07.528Z,51.88
2023-03-02T05:38:07.497Z,51.24
2023-03-02T05:39:07.468Z,51.56
2023-03-02T05:40:07.615Z,54.95
2023-03-02T05:41:07.487Z,54.62
2023-03-02T05:42:07.716Z,54.62
2023-03-02T05:43:07.484Z,53.33
2023-03-02T05:44:07.286Z,73.15
2023-03-02T05:45:07.516Z,74.12
2023-03-02T05:46:07.286Z,71.70
2023-03-02T05:47:07.590Z,72.67
2023-03-02T05:48:07.389Z,72.03
2023-03-02T05:49:07.457Z,74.12
2023-03-02T05:50:07.295Z,73.32
2023-03-02T05:51:07.416Z,72.67
2023-03-02T05:52:07.246Z,70.09
2023-03-02T05:53:07.466Z,70.42
2023-03-02T05:54:07.373Z,70.74
2023-03-02T05:55:07.347Z,69.45
2023-03-02T05:56:07.396Z,77.02
2023-03-02T05:57:07.420Z,70.09
2023-03-02T05:58:07.275Z,70.09
2023-03-02T05:59:07.185Z,68.48
2023-03-02T06:00:07.360Z,69.93
2023-03-02T06:01:07.492Z,75.09
2023-03-02T06:02:07.322Z,80.57
2023-03-02T06:03:07.924Z,68.48
2023-03-02T06:04:07.324Z,55.11
2023-03-02T06:05:07.712Z,57.20
2023-03-02T06:06:07.273Z,55.75
2023-03-02T06:07:07.172Z,66.87
2023-03-02T06:08:07.237Z,59.78
2023-03-02T06:09:07.242Z,56.07
2023-03-02T06:10:07.232Z,79.76
2023-03-02T06:11:07.192Z,74.93
2023-03-02T06:12:07.781Z,72.51
2023-03-02T06:13:08.133Z,70.09
2023-03-02T06:14:06.953Z,67.19
2023-03-02T06:15:07.284Z,72.99
2023-03-02T06:16:07.527Z,77.67
2023-03-02T06:17:07.153Z,82.18
2023-03-02T06:18:06.941Z,83.14
2023-03-02T06:19:07.196Z,69.29
2023-03-02T06:20:06.952Z,70.58
2023-03-02T06:21:07.187Z,79.92
2023-03-02T06:22:06.952Z,82.34
2023-03-02T06:23:07.080Z,77.83
2023-03-02T06:24:06.977Z,81.05
2023-03-02T06:25:06.253Z,85.72
2023-03-02T06:26:06.960Z,85.08
2023-03-02T06:27:07.113Z,82.66
2023-03-02T06:28:06.942Z,78.47
2023-03-02T06:29:07.418Z,70.09
2023-03-02T06:30:07.542Z,81.05
2023-03-02T06:31:06.213Z,83.79
2023-03-02T06:32:07.764Z,68.96
2023-03-02T06:33:06.935Z,69.61
2023-03-02T06:34:06.962Z,68.00
2023-03-02T06:35:06.916Z,81.21
2023-03-02T06:36:06.360Z,76.05
2023-03-02T06:37:06.823Z,74.12
2023-03-02T06:38:07.947Z,71.87
2023-03-02T06:39:06.956Z,73.48
2023-03-02T06:40:07.036Z,72.19
2023-03-02T06:41:06.231Z,61.55
2023-03-02T06:42:07.534Z,63.16
2023-03-02T06:43:06.764Z,69.45
2023-03-02T06:44:06.905Z,64.29
2023-03-02T06:45:06.109Z,64.13
2023-03-02T06:46:06.786Z,70.74
2023-03-02T06:47:06.887Z,73.48
2023-03-02T06:48:06.760Z,71.70
2023-03-02T06:49:06.893Z,68.48
2023-03-02T06:50:07.312Z,73.32
2023-03-02T06:51:06.915Z,71.22
2023-03-02T06:52:06.708Z,72.83
2023-03-02T06:53:06.808Z,73.80
2023-03-02T06:54:06.784Z,64.78
2023-03-02T06:55:06.747Z,63.65
2023-03-02T06:56:06.663Z,65.26
2023-03-02T06:57:06.857Z,62.84
2023-03-02T06:58:06.735Z,65.26
2023-03-02T06:59:06.666Z,63.00
2023-03-02T07:00:06.635Z,62.36
2023-03-02T07:01:06.581Z,63.81
2023-03-02T07:02:06.675Z,63.33
2023-03-02T07:03:06.504Z,63.16
2023-03-02T07:04:06.850Z,63.00
2023-03-02T07:05:06.548Z,63.65
2023-03-02T07:06:06.652Z,76.54
2023-03-02T07:07:06.567Z,70.09
2023-03-02T07:08:06.682Z,75.57
2023-03-02T07:09:06.543Z,61.55
2023-03-02T07:10:06.771Z,66.06
2023-03-02T07:11:06.569Z,61.71
2023-03-02T07:12:06.901Z,66.71
2023-03-02T07:13:08.970Z,64.13
2023-03-02T07:14:06.698Z,49.79
2023-03-02T07:15:06.489Z,50.43
2023-03-02T07:16:06.560Z,52.69
2023-03-02T07:17:06.734Z,59.14
2023-03-02T07:18:06.410Z,57.52
2023-03-02T07:19:06.499Z,52.53
2023-03-02T07:20:06.406Z,77.67
2023-03-02T07:21:06.467Z,64.45
2023-03-02T07:22:06.540Z,61.39
2023-03-02T07:23:06.466Z,57.36
2023-03-02T07:24:06.396Z,59.14
2023-03-02T07:25:06.437Z,53.33
2023-03-02T07:26:06.369Z,52.05
2023-03-02T07:27:06.439Z,60.75
2023-03-02T07:28:06.338Z,60.75
2023-03-02T07:29:06.473Z,56.72
2023-03-02T07:30:06.386Z,51.56
2023-03-02T07:31:06.431Z,57.69
2023-03-02T07:32:06.406Z,65.26
2023-03-02T07:33:06.190Z,80.08
2023-03-02T07:34:06.511Z,71.38
2023-03-02T07:35:06.191Z,70.42
2023-03-02T07:36:06.330Z,72.51
2023-03-02T07:37:06.189Z,71.22
2023-03-02T07:38:06.380Z,70.09
2023-03-02T07:39:06.242Z,79.92
2023-03-02T07:40:06.436Z,71.70
2023-03-02T07:41:06.280Z,76.86
2023-03-02T07:42:06.302Z,70.58
2023-03-02T07:43:06.237Z,71.22
2023-03-02T07:44:06.320Z,73.48
2023-03-02T07:45:06.239Z,69.61
2023-03-02T07:46:06.304Z,70.09
2023-03-02T07:47:06.371Z,66.06
2023-03-02T07:48:05.993Z,70.09
2023-03-02T07:49:06.312Z,72.19
2023-03-02T07:50:06.012Z,66.71
2023-03-02T07:51:06.240Z,71.87
2023-03-02T07:52:06.049Z,65.42
2023-03-02T07:53:06.191Z,82.82
2023-03-02T07:54:06.061Z,69.93
2023-03-02T07:55:06.221Z,71.22
2023-03-02T07:56:06.014Z,68.96
2023-03-02T07:57:06.175Z,69.77
2023-03-02T07:58:06.116Z,69.45
2023-03-02T07:59:06.101Z,68.80
2023-03-02T08:00:06.021Z,68.80
2023-03-02T08:01:06.183Z,67.84
2023-03-02T08:02:06.033Z,69.13
2023-03-02T08:03:06.112Z,75.09
2023-03-02T08:04:06.066Z,71.06
2023-03-02T08:05:05.948Z,74.44
2023-03-02T08:06:05.984Z,70.74
2023-03-02T08:07:05.931Z,68.64
2023-03-02T08:08:06.025Z,68.32
2023-03-02T08:09:05.882Z,60.42
2023-03-02T08:10:06.061Z,59.94
2023-03-02T08:11:05.852Z,48.50
2023-03-02T08:12:05.962Z,48.34
2023-03-02T08:13:05.922Z,48.98
2023-03-02T08:14:05.970Z,48.50
2023-03-02T08:15:05.854Z,48.66
2023-03-02T08:16:06.039Z,47.70
2023-03-02T08:17:05.865Z,48.18
2023-03-02T08:18:05.793Z,48.02
2023-03-02T08:19:05.943Z,48.34
2023-03-02T08:20:05.736Z,49.15
2023-03-02T08:21:06.038Z,51.72
2023-03-02T08:22:05.705Z,49.31
2023-03-02T08:23:05.840Z,51.56
2023-03-02T08:24:05.795Z,53.98
2023-03-02T08:25:05.855Z,49.15
2023-03-02T08:26:05.833Z,45.44
2023-03-02T08:27:05.927Z,70.42
2023-03-02T08:28:05.687Z,80.57
2023-03-02T08:29:05.756Z,76.22
2023-03-02T08:30:05.654Z,64.13
2023-03-02T08:31:05.792Z,67.19
2023-03-02T08:32:05.919Z,71.54
2023-03-02T08:33:07.235Z,70.25
2023-03-02T08:34:05.705Z,66.39
2023-03-02T08:35:05.534Z,67.03
2023-03-02T08:36:05.780Z,71.70
2023-03-02T08:37:05.715Z,65.90
2023-03-02T08:38:06.056Z,70.58
2023-03-02T08:39:05.537Z,68.64
2023-03-02T08:40:05.674Z,68.48
2023-03-02T08:41:05.726Z,69.13
2023-03-02T08:42:05.762Z,65.10
2023-03-02T08:43:07.774Z,67.35
2023-03-02T08:44:05.607Z,68.64
2023-03-02T08:45:05.631Z,65.42
2023-03-02T08:46:05.631Z,67.03
2023-03-02T08:47:05.553Z,60.26
2023-03-02T08:48:05.563Z,59.94
2023-03-02T08:49:05.664Z,61.07
2023-03-02T08:50:05.451Z,64.13
2023-03-02T08:51:05.566Z,80.73
2023-03-02T08:52:05.381Z,79.44
2023-03-02T08:53:05.533Z,78.31
2023-03-02T08:54:05.462Z,78.31
2023-03-02T08:55:05.725Z,79.60
2023-03-02T08:56:05.400Z,84.27
2023-03-02T08:57:05.624Z,81.21
2023-03-02T08:58:05.380Z,81.37
2023-03-02T08:59:05.666Z,76.86
2023-03-02T09:00:05.561Z,76.54
2023-03-02T09:01:05.465Z,79.76
2023-03-02T09:02:05.972Z,78.47
2023-03-02T09:03:05.278Z,79.92
2023-03-02T09:04:05.421Z,80.41
2023-03-02T09:05:05.240Z,75.89
2023-03-02T09:06:05.411Z,63.49
2023-03-02T09:07:05.197Z,63.33
2023-03-02T09:08:05.339Z,63.33
2023-03-02T09:09:05.180Z,63.49
2023-03-02T09:10:05.539Z,66.39
2023-03-02T09:11:05.391Z,63.97
2023-03-02T09:12:05.392Z,66.71
2023-03-02T09:13:07.434Z,83.47
2023-03-02T09:14:05.408Z,67.35
2023-03-02T09:15:05.289Z,67.03
2023-03-02T09:16:05.291Z,73.32
2023-03-02T09:17:05.556Z,68.80
2023-03-02T09:18:26.459Z,82.34
2023-03-02T09:19:05.290Z,68.80
2023-03-02T09:20:05.013Z,67.51
2023-03-02T09:21:05.529Z,66.06
2023-03-02T09:22:05.011Z,71.87
2023-03-02T09:23:05.292Z,69.77
2023-03-02T09:24:05.590Z,69.45
2023-03-02T09:25:05.259Z,66.71
2023-03-02T09:26:05.338Z,67.51
2023-03-02T09:27:05.244Z,67.51
2023-03-02T09:28:05.121Z,66.39
2023-03-02T09:29:05.132Z,63.97
2023-03-02T09:30:05.085Z,63.16
2023-03-02T09:31:05.181Z,82.34
2023-03-02T09:32:05.252Z,78.63
2023-03-02T09:33:04.977Z,76.54
2023-03-02T09:34:05.144Z,78.15
2023-03-02T09:35:04.985Z,80.24
2023-03-02T09:36:05.152Z,64.29
2023-03-02T09:37:04.893Z,67.35
2023-03-02T09:38:05.146Z,61.55
2023-03-02T09:39:04.903Z,69.61
2023-03-02T09:40:05.794Z,69.29
2023-03-02T09:41:04.883Z,65.90
2023-03-02T09:42:05.103Z,66.55
2023-03-02T09:43:04.903Z,68.64
2023-03-02T09:44:04.998Z,71.06
2023-03-02T09:45:04.908Z,72.19
2023-03-02T09:46:05.081Z,72.19
2023-03-02T09:47:04.991Z,67.03
2023-03-02T09:48:04.732Z,65.74
2023-03-02T09:49:04.847Z,60.42
2023-03-02T09:50:04.834Z,65.74
2023-03-02T09:51:04.943Z,65.74
2023-03-02T09:52:04.818Z,60.75
2023-03-02T09:53:04.958Z,67.51
2023-03-02T09:54:05.079Z,67.84
2023-03-02T09:55:04.857Z,66.71
2023-03-02T09:56:04.874Z,72.35
2023-03-02T09:57:04.932Z,60.91
2023-03-02T09:58:04.872Z,65.42
2023-03-02T09:59:04.866Z,66.71
2023-03-02T10:00:18.105Z,65.10
2023-03-02T10:01:04.838Z,67.03
2023-03-02T10:02:04.823Z,67.51
2023-03-02T10:03:16.237Z,68.16
2023-03-02T10:04:05.028Z,61.39
2023-03-02T10:05:05.370Z,60.75
2023-03-02T10:06:04.770Z,69.13
2023-03-02T10:07:04.581Z,67.19
2023-03-02T10:08:04.763Z,67.68
2023-03-02T10:09:04.581Z,68.80
2023-03-02T10:10:04.736Z,61.55
2023-03-02T10:11:04.631Z,60.75
2023-03-02T10:12:05.151Z,67.68
2023-03-02T10:13:04.618Z,60.91
2023-03-02T10:14:04.699Z,62.20
2023-03-02T10:15:04.583Z,59.14
2023-03-02T10:16:04.785Z,67.35
2023-03-02T10:17:04.551Z,65.74
2023-03-02T10:18:04.481Z,66.23
2023-03-02T10:19:05.612Z,58.65
2023-03-02T10:20:04.490Z,59.30
2023-03-02T10:21:04.611Z,59.94
2023-03-02T10:22:04.547Z,61.23
2023-03-02T10:23:04.593Z,66.55
2023-03-02T10:24:04.481Z,67.51
2023-03-02T10:25:04.545Z,61.39
2023-03-02T10:26:04.442Z,60.26
2023-03-02T10:27:04.553Z,61.55
2023-03-02T10:28:04.444Z,60.26
2023-03-02T10:29:04.531Z,60.59
2023-03-02T10:30:04.610Z,60.42
2023-03-02T10:31:05.461Z,60.26
2023-03-02T10:32:04.555Z,68.00
2023-03-02T10:33:04.256Z,62.52
2023-03-02T10:34:04.462Z,66.23
2023-03-02T10:35:04.358Z,68.80
2023-03-02T10:36:04.511Z,70.58
2023-03-02T10:37:04.250Z,68.00
2023-03-02T10:38:04.478Z,69.61
2023-03-02T10:39:04.911Z,62.36
2023-03-02T10:40:04.399Z,68.00
2023-03-02T10:41:04.331Z,65.42
2023-03-02T10:42:04.405Z,64.94
2023-03-02T10:43:04.275Z,72.19
2023-03-02T10:44:04.334Z,59.78
2023-03-02T10:45:04.360Z,61.07
2023-03-02T10:46:04.554Z,66.55
2023-03-02T10:47:04.352Z,65.42
2023-03-02T10:48:04.145Z,67.51
2023-03-02T10:49:04.265Z,66.06
2023-03-02T10:50:04.451Z,64.94
2023-03-02T10:51:04.230Z,65.90
2023-03-02T10:52:04.060Z,65.90
2023-03-02T10:53:05.336Z,65.58
2023-03-02T10:54:04.192Z,65.42
2023-03-02T10:55:03.418Z,75.89
2023-03-02T10:56:04.259Z,76.38
2023-03-02T10:57:04.205Z,74.12
2023-03-02T10:58:04.059Z,78.47
2023-03-02T10:59:04.216Z,74.77
2023-03-02T11:00:04.181Z,79.76
2023-03-02T11:01:04.200Z,76.54
2023-03-02T11:02:04.108Z,82.02
2023-03-02T11:03:04.327Z,78.96
2023-03-02T11:04:04.274Z,65.26
2023-03-02T11:05:04.057Z,80.08
2023-03-02T11:06:04.178Z,73.15
2023-03-02T11:07:03.911Z,70.42
2023-03-02T11:08:04.096Z,68.32
2023-03-02T11:09:03.920Z,68.00
2023-03-02T11:10:04.965Z,73.64
2023-03-02T11:11:03.941Z,71.54
2023-03-02T11:12:03.348Z,74.44
2023-03-02T11:13:03.981Z,71.87
2023-03-02T11:14:04.011Z,82.98
2023-03-02T11:15:04.062Z,71.06
2023-03-02T11:16:04.135Z,69.13
2023-03-02T11:17:03.920Z,70.42
2023-03-02T11:18:04.822Z,68.16
2023-03-02T11:19:03.915Z,64.94
2023-03-02T11:20:03.763Z,70.58
2023-03-02T11:21:04.561Z,69.29
2023-03-02T11:22:04.730Z,69.45
2023-03-02T11:23:04.018Z,70.74
2023-03-02T11:24:03.833Z,67.68
2023-03-02T11:25:03.969Z,68.48
2023-03-02T11:26:03.789Z,68.00
2023-03-02T11:27:03.905Z,61.07
2023-03-02T11:28:03.780Z,60.42
2023-03-02T11:29:04.181Z,71.22
2023-03-02T11:30:05.076Z,69.77
2023-03-02T11:31:04.184Z,68.16
2023-03-02T11:32:04.456Z,70.25
2023-03-02T11:33:03.605Z,65.74
2023-03-02T11:34:11.621Z,67.35
2023-03-02T11:35:03.655Z,65.26
2023-03-02T11:36:03.790Z,66.23
2023-03-02T11:37:03.736Z,63.81
2023-03-02T11:38:03.770Z,63.81
2023-03-02T11:39:03.602Z,63.97
2023-03-02T11:40:04.372Z,63.97
2023-03-02T11:41:03.858Z,62.36
2023-03-02T11:42:04.261Z,71.54
2023-03-02T11:43:03.612Z,73.80
2023-03-02T11:44:04.003Z,72.35
2023-03-02T11:45:03.632Z,72.51
2023-03-02T11:46:10.826Z,71.87
2023-03-02T11:47:03.096Z,73.15
2023-03-02T11:48:04.179Z,70.74
2023-03-02T11:49:04.116Z,67.19
2023-03-02T11:50:03.484Z,75.57
2023-03-02T11:51:03.603Z,73.15
2023-03-02T11:52:03.488Z,71.22
2023-03-02T11:53:03.644Z,72.03
2023-03-02T11:54:03.513Z,73.64
2023-03-02T11:55:03.563Z,72.35
2023-03-02T11:56:03.486Z,73.15
2023-03-02T11:57:02.755Z,74.60
2023-03-02T11:58:03.699Z,72.67
2023-03-02T11:59:02.764Z,68.32
2023-03-02T12:00:03.392Z,75.09
2023-03-02T12:01:03.508Z,70.42
2023-03-02T12:02:03.463Z,73.64
2023-03-02T12:03:03.433Z,70.74
2023-03-02T12:05:04.195Z,88.46
2023-03-02T12:06:05.235Z,74.60
2023-03-02T12:07:02.718Z,71.54
2023-03-02T12:08:03.736Z,72.03
2023-03-02T12:09:04.318Z,83.14
2023-03-02T12:10:03.389Z,73.96
2023-03-02T12:11:03.424Z,73.32
2023-03-02T12:12:05.436Z,73.15
2023-03-02T12:13:04.338Z,75.57
2023-03-02T12:14:03.459Z,70.42
2023-03-02T12:15:03.355Z,69.93
2023-03-02T12:16:03.456Z,70.74
2023-03-02T12:17:03.307Z,74.28
2023-03-02T12:18:02.581Z,70.09
2023-03-02T12:19:02.575Z,67.19
2023-03-02T12:20:03.113Z,70.90
2023-03-02T12:21:03.337Z,53.82
2023-03-02T12:22:03.115Z,51.88
2023-03-02T12:23:02.641Z,45.60
2023-03-02T12:24:04.130Z,46.25
2023-03-02T12:25:04.682Z,45.60
2023-03-02T12:26:03.159Z,47.70
2023-03-02T12:27:04.260Z,45.44
2023-03-02T12:28:03.184Z,49.95
2023-03-02T12:29:03.264Z,61.55
2023-03-02T12:30:03.991Z,56.88
2023-03-02T12:31:03.313Z,56.88
2023-03-02T12:32:04.053Z,57.20
2023-03-02T12:33:02.967Z,57.04
2023-03-02T12:34:03.627Z,56.24
2023-03-02T12:35:03.060Z,61.07
2023-03-02T12:36:04.064Z,65.90
2023-03-02T12:37:03.114Z,74.28
2023-03-02T12:38:03.438Z,72.67
2023-03-02T12:39:03.056Z,71.54
2023-03-02T12:40:03.327Z,71.54
2023-03-02T12:41:03.038Z,72.19
2023-03-02T12:42:03.123Z,71.70
2023-03-02T12:43:03.153Z,72.35
2023-03-02T12:44:03.133Z,75.09
2023-03-02T12:45:03.289Z,66.06
2023-03-02T12:46:03.146Z,64.78
2023-03-02T12:47:04.087Z,71.22
2023-03-02T12:48:03.317Z,73.48
2023-03-02T12:49:03.707Z,72.35
2023-03-02T12:50:02.808Z,65.10
2023-03-02T12:51:03.187Z,65.10
2023-03-02T12:52:03.188Z,65.58
2023-03-02T12:53:03.007Z,69.45